Terminal Aerodrome Forecast
Issued by NWS Dallas/Fort Worth, TX

Home | Current Version | Previous Version | Text Only | Print | Product List | Glossary On
Versions: 1 2 3 4 5 6 7 8 9 10 11 12 13 14 15 16 17 18 19 20 21 22 23 24 25 26 27 28 29 30
000
FTUS44 KFWD 270537 CCA
TAFDFW
TAF COR
KDFW 270537Z 2706/2812 18018KT P6SM SCT080 BKN300
     FM270800 18016KT P6SM SCT015
     FM270900 31010KT P6SM SCT020
     FM271100 33010KT P6SM SCT020
     FM272100 01004KT P6SM FEW250=

USA.gov is the U.S. government's official web portal to all federal, state and local government web resources and services.